Terminal Aerodrome Forecast
Issued by NWS Mt. Holly, NJ

Home | Current Version | Previous Version | Text Only | Print | Product List | Glossary On
Versions: 1 2 3 4 5 6 7 8 9 10 11 12 13 14 15 16 17 18 19 20 21 22 23 24 25 26 27 28 29 30 31 32 33 34 35
680
FTUS41 KPHI 222046 AAA
TAFPHL
TAF AMD
KPHL 222046Z 2221/2324 05007KT 1SM -RADZ BR OVC006
     FM222300 05010KT 1SM -RADZ BR OVC003
     FM230400 05015G22KT 1SM -RADZ BR OVC003
     FM230700 05022G28KT 1SM -RADZ BR OVC004
     FM231100 06025G35KT 3SM RA BR OVC006=

USA.gov is the U.S. government's official web portal to all federal, state and local government web resources and services.